sensor_id;sensor_type;location;lat;lon;timestamp;P1;durP1;ratioP1;P2;durP2;ratioP2
20776;SDS011;10548;47.504;8.248;2023-07-08T00:01:13;16.27;;;6.30;;
20776;SDS011;10548;47.504;8.248;2023-07-08T00:03:43;17.27;;;5.70;;
20776;SDS011;10548;47.504;8.248;2023-07-08T00:06:13;18.00;;;6.47;;
20776;SDS011;10548;47.504;8.248;2023-07-08T00:08:45;11.43;;;5.43;;
20776;SDS011;10548;47.504;8.248;2023-07-08T00:11:13;13.30;;;5.90;;
20776;SDS011;10548;47.504;8.248;2023-07-08T00:13:41;13.30;;;5.90;;
20776;SDS011;10548;47.504;8.248;2023-07-08T00:16:13;14.23;;;6.23;;
20776;SDS011;10548;47.504;8.248;2023-07-08T00:18:42;18.10;;;5.80;;
20776;SDS011;10548;47.504;8.248;2023-07-08T00:21:09;14.30;;;5.30;;
20776;SDS011;10548;47.504;8.248;2023-07-08T00:23:48;19.23;;;6.60;;
20776;SDS011;10548;47.504;8.248;2023-07-08T00:26:23;12.20;;;5.97;;
20776;SDS011;10548;47.504;8.248;2023-07-08T00:28:53;12.13;;;5.73;;
20776;SDS011;10548;47.504;8.248;2023-07-08T00:31:21;13.90;;;5.90;;
20776;SDS011;10548;47.504;8.248;2023-07-08T00:33:53;13.37;;;5.57;;
20776;SDS011;10548;47.504;8.248;2023-07-08T00:36:23;10.80;;;5.47;;
20776;SDS011;10548;47.504;8.248;2023-07-08T00:38:53;11.07;;;5.10;;
20776;SDS011;10548;47.504;8.248;2023-07-08T00:41:41;16.17;;;5.97;;
20776;SDS011;10548;47.504;8.248;2023-07-08T00:44:11;14.60;;;6.13;;
20776;SDS011;10548;47.504;8.248;2023-07-08T00:46:48;15.20;;;5.93;;
20776;SDS011;10548;47.504;8.248;2023-07-08T00:49:48;13.03;;;5.07;;
20776;SDS011;10548;47.504;8.248;2023-07-08T00:52:27;18.67;;;6.43;;
20776;SDS011;10548;47.504;8.248;2023-07-08T00:54:58;13.40;;;5.47;;
20776;SDS011;10548;47.504;8.248;2023-07-08T00:57:37;17.27;;;6.03;;
20776;SDS011;10548;47.504;8.248;2023-07-08T01:00:11;21.30;;;5.47;;
20776;SDS011;10548;47.504;8.248;2023-07-08T01:02:46;13.20;;;5.83;;
20776;SDS011;10548;47.504;8.248;2023-07-08T01:05:17;18.03;;;5.77;;
20776;SDS011;10548;47.504;8.248;2023-07-08T01:07:50;18.47;;;7.07;;
20776;SDS011;10548;47.504;8.248;2023-07-08T01:10:22;14.30;;;6.13;;
20776;SDS011;10548;47.504;8.248;2023-07-08T01:12:59;13.60;;;5.53;;
20776;SDS011;10548;47.504;8.248;2023-07-08T01:15:34;13.60;;;6.50;;
20776;SDS011;10548;47.504;8.248;2023-07-08T01:18:05;13.77;;;6.50;;
20776;SDS011;10548;47.504;8.248;2023-07-08T01:20:35;17.57;;;6.50;;
20776;SDS011;10548;47.504;8.248;2023-07-08T01:23:03;16.67;;;6.73;;
20776;SDS011;10548;47.504;8.248;2023-07-08T01:25:31;13.27;;;6.70;;
20776;SDS011;10548;47.504;8.248;2023-07-08T01:28:00;14.53;;;5.97;;
20776;SDS011;10548;47.504;8.248;2023-07-08T01:30:28;15.87;;;5.40;;
20776;SDS011;10548;47.504;8.248;2023-07-08T01:32:57;16.67;;;6.60;;
20776;SDS011;10548;47.504;8.248;2023-07-08T01:35:29;14.13;;;6.10;;
20776;SDS011;10548;47.504;8.248;2023-07-08T01:37:59;17.60;;;6.50;;
20776;SDS011;10548;47.504;8.248;2023-07-08T01:40:33;10.93;;;6.43;;
20776;SDS011;10548;47.504;8.248;2023-07-08T01:43:02;17.17;;;5.87;;
20776;SDS011;10548;47.504;8.248;2023-07-08T01:45:36;14.13;;;6.30;;
20776;SDS011;10548;47.504;8.248;2023-07-08T01:48:17;14.33;;;6.43;;
20776;SDS011;10548;47.504;8.248;2023-07-08T01:53:37;17.63;;;6.60;;
20776;SDS011;10548;47.504;8.248;2023-07-08T01:56:07;22.77;;;7.90;;
20776;SDS011;10548;47.504;8.248;2023-07-08T01:58:36;16.27;;;7.30;;
20776;SDS011;10548;47.504;8.248;2023-07-08T02:01:03;14.77;;;6.77;;
20776;SDS011;10548;47.504;8.248;2023-07-08T02:03:30;19.07;;;5.83;;
20776;SDS011;10548;47.504;8.248;2023-07-08T02:05:58;17.37;;;6.70;;
20776;SDS011;10548;47.504;8.248;2023-07-08T02:08:25;16.93;;;6.93;;
20776;SDS011;10548;47.504;8.248;2023-07-08T02:10:56;15.80;;;6.90;;
20776;SDS011;10548;47.504;8.248;2023-07-08T02:13:25;13.43;;;7.43;;
20776;SDS011;10548;47.504;8.248;2023-07-08T02:15:53;13.83;;;6.57;;
20776;SDS011;10548;47.504;8.248;2023-07-08T02:18:21;11.37;;;6.23;;
20776;SDS011;10548;47.504;8.248;2023-07-08T02:20:51;10.13;;;5.30;;
20776;SDS011;10548;47.504;8.248;2023-07-08T02:23:18;17.93;;;6.70;;
20776;SDS011;10548;47.504;8.248;2023-07-08T02:25:55;15.13;;;7.63;;
20776;SDS011;10548;47.504;8.248;2023-07-08T02:28:23;16.57;;;7.20;;
20776;SDS011;10548;47.504;8.248;2023-07-08T02:30:50;19.43;;;7.57;;
20776;SDS011;10548;47.504;8.248;2023-07-08T02:33:18;16.73;;;6.17;;
20776;SDS011;10548;47.504;8.248;2023-07-08T02:35:45;12.67;;;5.87;;
20776;SDS011;10548;47.504;8.248;2023-07-08T02:38:12;10.70;;;5.77;;
20776;SDS011;10548;47.504;8.248;2023-07-08T02:40:40;10.60;;;5.30;;
20776;SDS011;10548;47.504;8.248;2023-07-08T02:43:07;10.63;;;5.00;;
20776;SDS011;10548;47.504;8.248;2023-07-08T02:45:34;11.23;;;5.17;;
20776;SDS011;10548;47.504;8.248;2023-07-08T02:48:03;11.37;;;5.30;;
20776;SDS011;10548;47.504;8.248;2023-07-08T02:50:31;8.67;;;4.83;;
20776;SDS011;10548;47.504;8.248;2023-07-08T02:52:58;13.20;;;6.30;;
20776;SDS011;10548;47.504;8.248;2023-07-08T02:55:25;12.10;;;7.57;;
20776;SDS011;10548;47.504;8.248;2023-07-08T02:57:52;18.40;;;8.07;;
20776;SDS011;10548;47.504;8.248;2023-07-08T03:00:19;21.93;;;8.60;;
20776;SDS011;10548;47.504;8.248;2023-07-08T03:02:47;20.67;;;7.40;;
20776;SDS011;10548;47.504;8.248;2023-07-08T03:05:14;14.93;;;6.80;;
20776;SDS011;10548;47.504;8.248;2023-07-08T03:07:41;13.60;;;6.20;;
20776;SDS011;10548;47.504;8.248;2023-07-08T03:10:08;13.63;;;6.43;;
20776;SDS011;10548;47.504;8.248;2023-07-08T03:12:36;13.30;;;6.40;;
20776;SDS011;10548;47.504;8.248;2023-07-08T03:15:04;14.13;;;6.13;;
20776;SDS011;10548;47.504;8.248;2023-07-08T03:17:31;15.07;;;6.30;;
20776;SDS011;10548;47.504;8.248;2023-07-08T03:19:59;14.43;;;6.63;;
20776;SDS011;10548;47.504;8.248;2023-07-08T03:22:26;14.90;;;6.93;;
20776;SDS011;10548;47.504;8.248;2023-07-08T03:24:53;14.70;;;7.67;;
20776;SDS011;10548;47.504;8.248;2023-07-08T03:27:21;17.37;;;6.50;;
20776;SDS011;10548;47.504;8.248;2023-07-08T03:29:49;12.00;;;6.73;;
20776;SDS011;10548;47.504;8.248;2023-07-08T03:32:16;11.40;;;7.07;;
20776;SDS011;10548;47.504;8.248;2023-07-08T03:34:44;13.27;;;6.93;;
20776;SDS011;10548;47.504;8.248;2023-07-08T03:37:12;14.50;;;6.20;;
20776;SDS011;10548;47.504;8.248;2023-07-08T03:39:39;10.00;;;4.47;;
20776;SDS011;10548;47.504;8.248;2023-07-08T03:42:06;5.73;;;3.70;;
20776;SDS011;10548;47.504;8.248;2023-07-08T03:44:33;7.27;;;3.30;;
20776;SDS011;10548;47.504;8.248;2023-07-08T03:47:01;9.13;;;3.65;;
20776;SDS011;10548;47.504;8.248;2023-07-08T03:49:28;5.47;;;3.10;;
20776;SDS011;10548;47.504;8.248;2023-07-08T03:51:55;6.63;;;2.90;;
20776;SDS011;10548;47.504;8.248;2023-07-08T03:54:23;7.47;;;2.93;;
20776;SDS011;10548;47.504;8.248;2023-07-08T03:56:54;6.93;;;3.27;;
20776;SDS011;10548;47.504;8.248;2023-07-08T03:59:24;9.27;;;4.30;;
20776;SDS011;10548;47.504;8.248;2023-07-08T04:01:53;8.07;;;4.27;;
20776;SDS011;10548;47.504;8.248;2023-07-08T04:04:22;8.53;;;4.40;;
20776;SDS011;10548;47.504;8.248;2023-07-08T04:06:50;7.87;;;3.93;;
20776;SDS011;10548;47.504;8.248;2023-07-08T04:09:18;8.63;;;4.23;;
20776;SDS011;10548;47.504;8.248;2023-07-08T04:11:45;10.50;;;4.00;;
20776;SDS011;10548;47.504;8.248;2023-07-08T04:14:12;6.63;;;2.90;;
20776;SDS011;10548;47.504;8.248;2023-07-08T04:16:48;7.77;;;3.40;;
20776;SDS011;10548;47.504;8.248;2023-07-08T04:19:25;5.53;;;2.67;;
20776;SDS011;10548;47.504;8.248;2023-07-08T04:21:53;7.23;;;2.40;;
20776;SDS011;10548;47.504;8.248;2023-07-08T04:24:21;4.70;;;2.10;;
20776;SDS011;10548;47.504;8.248;2023-07-08T04:26:48;4.73;;;2.40;;
20776;SDS011;10548;47.504;8.248;2023-07-08T04:29:17;4.77;;;2.20;;
20776;SDS011;10548;47.504;8.248;2023-07-08T04:31:46;8.70;;;2.63;;
20776;SDS011;10548;47.504;8.248;2023-07-08T04:34:13;5.93;;;2.47;;
20776;SDS011;10548;47.504;8.248;2023-07-08T04:36:42;4.33;;;2.27;;
20776;SDS011;10548;47.504;8.248;2023-07-08T04:39:09;9.63;;;4.27;;
20776;SDS011;10548;47.504;8.248;2023-07-08T04:41:37;10.17;;;4.23;;
20776;SDS011;10548;47.504;8.248;2023-07-08T04:44:08;10.60;;;3.60;;
20776;SDS011;10548;47.504;8.248;2023-07-08T04:46:56;8.43;;;3.63;;
20776;SDS011;10548;47.504;8.248;2023-07-08T04:49:24;8.23;;;3.83;;
20776;SDS011;10548;47.504;8.248;2023-07-08T04:51:58;5.50;;;2.80;;
20776;SDS011;10548;47.504;8.248;2023-07-08T04:54:26;8.27;;;2.93;;
20776;SDS011;10548;47.504;8.248;2023-07-08T04:56:53;5.87;;;2.70;;
20776;SDS011;10548;47.504;8.248;2023-07-08T04:59:24;5.17;;;2.70;;
20776;SDS011;10548;47.504;8.248;2023-07-08T05:01:51;5.33;;;2.90;;
20776;SDS011;10548;47.504;8.248;2023-07-08T05:04:20;6.10;;;2.67;;
20776;SDS011;10548;47.504;8.248;2023-07-08T05:06:48;4.73;;;2.50;;
20776;SDS011;10548;47.504;8.248;2023-07-08T05:09:16;6.10;;;2.87;;
20776;SDS011;10548;47.504;8.248;2023-07-08T05:11:44;6.20;;;2.70;;
20776;SDS011;10548;47.504;8.248;2023-07-08T05:14:11;7.80;;;2.40;;
20776;SDS011;10548;47.504;8.248;2023-07-08T05:16:39;10.43;;;2.50;;
20776;SDS011;10548;47.504;8.248;2023-07-08T05:19:07;6.97;;;2.83;;
20776;SDS011;10548;47.504;8.248;2023-07-08T05:21:34;4.90;;;2.90;;
20776;SDS011;10548;47.504;8.248;2023-07-08T05:24:01;6.57;;;2.80;;
20776;SDS011;10548;47.504;8.248;2023-07-08T05:26:29;6.57;;;2.53;;
20776;SDS011;10548;47.504;8.248;2023-07-08T05:28:57;4.43;;;2.57;;
20776;SDS011;10548;47.504;8.248;2023-07-08T05:31:25;7.20;;;3.00;;
20776;SDS011;10548;47.504;8.248;2023-07-08T05:34:11;4.83;;;3.00;;
20776;SDS011;10548;47.504;8.248;2023-07-08T05:36:38;4.43;;;2.40;;
20776;SDS011;10548;47.504;8.248;2023-07-08T05:39:05;6.60;;;2.60;;
20776;SDS011;10548;47.504;8.248;2023-07-08T05:41:32;9.23;;;2.60;;
20776;SDS011;10548;47.504;8.248;2023-07-08T05:44:00;4.43;;;2.43;;
20776;SDS011;10548;47.504;8.248;2023-07-08T05:46:27;7.30;;;3.30;;
20776;SDS011;10548;47.504;8.248;2023-07-08T05:48:54;5.77;;;2.97;;
20776;SDS011;10548;47.504;8.248;2023-07-08T05:51:24;6.93;;;2.90;;
20776;SDS011;10548;47.504;8.248;2023-07-08T05:53:51;10.13;;;3.23;;
20776;SDS011;10548;47.504;8.248;2023-07-08T05:56:18;6.60;;;3.10;;
20776;SDS011;10548;47.504;8.248;2023-07-08T05:58:45;6.63;;;3.50;;
20776;SDS011;10548;47.504;8.248;2023-07-08T06:01:12;6.17;;;3.30;;
20776;SDS011;10548;47.504;8.248;2023-07-08T06:03:40;5.47;;;3.23;;
20776;SDS011;10548;47.504;8.248;2023-07-08T06:06:07;5.23;;;3.00;;
20776;SDS011;10548;47.504;8.248;2023-07-08T06:08:34;7.17;;;3.00;;
20776;SDS011;10548;47.504;8.248;2023-07-08T06:11:01;5.40;;;2.53;;
20776;SDS011;10548;47.504;8.248;2023-07-08T06:13:29;4.67;;;2.60;;
20776;SDS011;10548;47.504;8.248;2023-07-08T06:15:56;9.83;;;2.77;;
20776;SDS011;10548;47.504;8.248;2023-07-08T06:18:24;6.07;;;3.00;;
20776;SDS011;10548;47.504;8.248;2023-07-08T06:20:52;8.83;;;3.53;;
20776;SDS011;10548;47.504;8.248;2023-07-08T06:23:20;6.23;;;3.60;;
20776;SDS011;10548;47.504;8.248;2023-07-08T06:25:48;5.53;;;2.87;;
20776;SDS011;10548;47.504;8.248;2023-07-08T06:28:15;8.73;;;3.50;;
20776;SDS011;10548;47.504;8.248;2023-07-08T06:30:43;3.97;;;2.33;;
20776;SDS011;10548;47.504;8.248;2023-07-08T06:33:10;7.50;;;2.70;;
20776;SDS011;10548;47.504;8.248;2023-07-08T06:35:38;7.43;;;3.00;;
20776;SDS011;10548;47.504;8.248;2023-07-08T06:38:06;7.43;;;3.03;;
20776;SDS011;10548;47.504;8.248;2023-07-08T06:40:34;7.90;;;3.10;;
20776;SDS011;10548;47.504;8.248;2023-07-08T06:43:04;5.50;;;2.70;;
20776;SDS011;10548;47.504;8.248;2023-07-08T06:45:40;6.30;;;3.03;;
20776;SDS011;10548;47.504;8.248;2023-07-08T06:48:07;7.47;;;2.90;;
20776;SDS011;10548;47.504;8.248;2023-07-08T06:50:34;4.00;;;2.27;;
20776;SDS011;10548;47.504;8.248;2023-07-08T06:53:02;4.63;;;2.93;;
20776;SDS011;10548;47.504;8.248;2023-07-08T06:55:29;4.43;;;2.60;;
20776;SDS011;10548;47.504;8.248;2023-07-08T06:57:56;6.03;;;2.47;;
20776;SDS011;10548;47.504;8.248;2023-07-08T07:00:23;4.37;;;2.37;;
20776;SDS011;10548;47.504;8.248;2023-07-08T07:02:50;4.90;;;2.73;;
20776;SDS011;10548;47.504;8.248;2023-07-08T07:05:18;5.43;;;2.77;;
20776;SDS011;10548;47.504;8.248;2023-07-08T07:07:48;5.57;;;2.80;;
20776;SDS011;10548;47.504;8.248;2023-07-08T07:10:16;11.60;;;4.03;;
20776;SDS011;10548;47.504;8.248;2023-07-08T07:12:43;3.93;;;2.70;;
20776;SDS011;10548;47.504;8.248;2023-07-08T07:15:10;4.23;;;2.30;;
20776;SDS011;10548;47.504;8.248;2023-07-08T07:17:37;7.83;;;2.77;;
20776;SDS011;10548;47.504;8.248;2023-07-08T07:20:05;5.70;;;2.80;;
20776;SDS011;10548;47.504;8.248;2023-07-08T07:22:33;4.03;;;2.00;;
20776;SDS011;10548;47.504;8.248;2023-07-08T07:25:00;4.17;;;2.40;;
20776;SDS011;10548;47.504;8.248;2023-07-08T07:27:27;6.80;;;3.07;;
20776;SDS011;10548;47.504;8.248;2023-07-08T07:29:55;3.63;;;2.60;;
20776;SDS011;10548;47.504;8.248;2023-07-08T07:32:22;9.23;;;3.30;;
20776;SDS011;10548;47.504;8.248;2023-07-08T07:34:50;4.80;;;3.13;;
20776;SDS011;10548;47.504;8.248;2023-07-08T07:37:19;7.73;;;3.33;;
20776;SDS011;10548;47.504;8.248;2023-07-08T07:39:47;7.70;;;3.77;;
20776;SDS011;10548;47.504;8.248;2023-07-08T07:42:15;9.17;;;3.40;;
20776;SDS011;10548;47.504;8.248;2023-07-08T07:44:46;5.53;;;3.07;;
20776;SDS011;10548;47.504;8.248;2023-07-08T07:47:13;6.47;;;3.10;;
20776;SDS011;10548;47.504;8.248;2023-07-08T07:49:40;6.43;;;3.10;;
20776;SDS011;10548;47.504;8.248;2023-07-08T07:52:07;8.50;;;3.10;;
20776;SDS011;10548;47.504;8.248;2023-07-08T07:54:40;7.73;;;3.23;;
20776;SDS011;10548;47.504;8.248;2023-07-08T07:57:07;5.37;;;2.97;;
20776;SDS011;10548;47.504;8.248;2023-07-08T07:59:34;5.60;;;2.43;;
20776;SDS011;10548;47.504;8.248;2023-07-08T08:02:01;7.10;;;3.10;;
20776;SDS011;10548;47.504;8.248;2023-07-08T08:04:29;5.37;;;2.60;;
20776;SDS011;10548;47.504;8.248;2023-07-08T08:06:56;7.17;;;3.10;;
20776;SDS011;10548;47.504;8.248;2023-07-08T08:09:23;5.97;;;3.10;;
20776;SDS011;10548;47.504;8.248;2023-07-08T08:11:50;13.03;;;3.60;;
20776;SDS011;10548;47.504;8.248;2023-07-08T08:14:18;5.83;;;2.97;;
20776;SDS011;10548;47.504;8.248;2023-07-08T08:16:45;6.10;;;2.53;;
20776;SDS011;10548;47.504;8.248;2023-07-08T08:19:12;5.83;;;2.90;;
20776;SDS011;10548;47.504;8.248;2023-07-08T08:21:39;9.13;;;3.73;;
20776;SDS011;10548;47.504;8.248;2023-07-08T08:24:07;5.57;;;3.03;;
20776;SDS011;10548;47.504;8.248;2023-07-08T08:26:34;7.77;;;3.30;;
20776;SDS011;10548;47.504;8.248;2023-07-08T08:29:01;5.37;;;2.80;;
20776;SDS011;10548;47.504;8.248;2023-07-08T08:31:28;6.03;;;3.20;;
20776;SDS011;10548;47.504;8.248;2023-07-08T08:33:57;6.60;;;3.47;;
20776;SDS011;10548;47.504;8.248;2023-07-08T08:36:25;7.73;;;3.20;;
20776;SDS011;10548;47.504;8.248;2023-07-08T08:38:52;5.13;;;3.00;;
20776;SDS011;10548;47.504;8.248;2023-07-08T08:41:29;8.80;;;3.90;;
20776;SDS011;10548;47.504;8.248;2023-07-08T08:43:58;8.83;;;2.90;;
20776;SDS011;10548;47.504;8.248;2023-07-08T08:46:32;5.97;;;3.63;;
20776;SDS011;10548;47.504;8.248;2023-07-08T08:49:21;7.57;;;3.10;;
20776;SDS011;10548;47.504;8.248;2023-07-08T08:51:53;6.47;;;3.40;;
20776;SDS011;10548;47.504;8.248;2023-07-08T08:54:26;5.33;;;3.17;;
20776;SDS011;10548;47.504;8.248;2023-07-08T08:57:00;4.63;;;2.90;;
20776;SDS011;10548;47.504;8.248;2023-07-08T08:59:56;8.80;;;3.80;;
20776;SDS011;10548;47.504;8.248;2023-07-08T09:02:27;4.53;;;3.10;;
20776;SDS011;10548;47.504;8.248;2023-07-08T09:05:11;5.80;;;3.40;;
20776;SDS011;10548;47.504;8.248;2023-07-08T09:07:41;6.20;;;3.13;;
20776;SDS011;10548;47.504;8.248;2023-07-08T09:10:35;6.90;;;3.30;;
20776;SDS011;10548;47.504;8.248;2023-07-08T09:13:31;10.50;;;3.73;;
20776;SDS011;10548;47.504;8.248;2023-07-08T09:16:09;5.83;;;3.70;;
20776;SDS011;10548;47.504;8.248;2023-07-08T09:19:10;8.87;;;4.33;;
20776;SDS011;10548;47.504;8.248;2023-07-08T09:22:13;7.67;;;3.67;;
20776;SDS011;10548;47.504;8.248;2023-07-08T09:27:51;10.43;;;4.07;;
20776;SDS011;10548;47.504;8.248;2023-07-08T09:30:20;6.83;;;4.07;;
20776;SDS011;10548;47.504;8.248;2023-07-08T09:32:48;4.53;;;3.00;;
20776;SDS011;10548;47.504;8.248;2023-07-08T09:35:22;6.93;;;3.40;;
20776;SDS011;10548;47.504;8.248;2023-07-08T09:37:51;11.20;;;4.43;;
20776;SDS011;10548;47.504;8.248;2023-07-08T09:40:23;7.30;;;3.70;;
20776;SDS011;10548;47.504;8.248;2023-07-08T09:43:03;10.87;;;3.57;;
20776;SDS011;10548;47.504;8.248;2023-07-08T09:46:03;11.57;;;4.33;;
20776;SDS011;10548;47.504;8.248;2023-07-08T09:48:34;7.37;;;4.20;;
20776;SDS011;10548;47.504;8.248;2023-07-08T09:51:02;8.00;;;4.03;;
20776;SDS011;10548;47.504;8.248;2023-07-08T09:53:30;7.97;;;3.87;;
20776;SDS011;10548;47.504;8.248;2023-07-08T09:55:59;5.80;;;3.47;;
20776;SDS011;10548;47.504;8.248;2023-07-08T09:58:30;8.80;;;4.07;;
20776;SDS011;10548;47.504;8.248;2023-07-08T10:01:01;14.33;;;4.27;;
20776;SDS011;10548;47.504;8.248;2023-07-08T10:03:39;8.67;;;4.10;;
20776;SDS011;10548;47.504;8.248;2023-07-08T10:06:22;8.13;;;3.70;;
20776;SDS011;10548;47.504;8.248;2023-07-08T10:08:54;11.67;;;3.97;;
20776;SDS011;10548;47.504;8.248;2023-07-08T10:11:28;8.10;;;3.57;;
20776;SDS011;10548;47.504;8.248;2023-07-08T10:13:59;9.40;;;4.10;;
20776;SDS011;10548;47.504;8.248;2023-07-08T10:16:39;7.67;;;3.97;;
20776;SDS011;10548;47.504;8.248;2023-07-08T10:19:16;7.33;;;3.37;;
20776;SDS011;10548;47.504;8.248;2023-07-08T10:21:59;5.97;;;3.53;;
20776;SDS011;10548;47.504;8.248;2023-07-08T10:25:09;6.93;;;3.90;;
20776;SDS011;10548;47.504;8.248;2023-07-08T10:28:06;6.33;;;3.47;;
20776;SDS011;10548;47.504;8.248;2023-07-08T10:31:27;6.73;;;3.20;;
20776;SDS011;10548;47.504;8.248;2023-07-08T10:34:35;6.40;;;3.87;;
20776;SDS011;10548;47.504;8.248;2023-07-08T10:37:25;7.20;;;3.60;;
20776;SDS011;10548;47.504;8.248;2023-07-08T10:43:37;6.37;;;3.40;;
20776;SDS011;10548;47.504;8.248;2023-07-08T10:46:37;7.30;;;3.53;;
20776;SDS011;10548;47.504;8.248;2023-07-08T10:49:39;6.50;;;3.50;;
20776;SDS011;10548;47.504;8.248;2023-07-08T10:55:34;10.47;;;4.00;;
20776;SDS011;10548;47.504;8.248;2023-07-08T10:58:25;10.10;;;4.50;;
20776;SDS011;10548;47.504;8.248;2023-07-08T11:08:07;6.17;;;3.50;;
20776;SDS011;10548;47.504;8.248;2023-07-08T11:10:52;9.03;;;4.00;;
20776;SDS011;10548;47.504;8.248;2023-07-08T11:13:42;13.50;;;4.40;;
20776;SDS011;10548;47.504;8.248;2023-07-08T11:16:24;6.97;;;3.77;;
20776;SDS011;10548;47.504;8.248;2023-07-08T11:21:55;7.30;;;4.10;;
20776;SDS011;10548;47.504;8.248;2023-07-08T11:27:29;8.50;;;4.20;;
20776;SDS011;10548;47.504;8.248;2023-07-08T11:30:11;8.57;;;4.33;;
20776;SDS011;10548;47.504;8.248;2023-07-08T11:32:44;7.30;;;3.93;;
20776;SDS011;10548;47.504;8.248;2023-07-08T11:35:23;8.33;;;3.83;;
20776;SDS011;10548;47.504;8.248;2023-07-08T11:38:04;9.27;;;3.87;;
20776;SDS011;10548;47.504;8.248;2023-07-08T11:40:32;7.60;;;3.83;;
20776;SDS011;10548;47.504;8.248;2023-07-08T11:43:34;8.77;;;3.10;;
20776;SDS011;10548;47.504;8.248;2023-07-08T11:46:11;6.57;;;3.57;;
20776;SDS011;10548;47.504;8.248;2023-07-08T11:48:50;8.57;;;3.87;;
20776;SDS011;10548;47.504;8.248;2023-07-08T11:51:21;9.23;;;4.00;;
20776;SDS011;10548;47.504;8.248;2023-07-08T11:57:01;8.17;;;3.70;;
20776;SDS011;10548;47.504;8.248;2023-07-08T11:59:32;8.17;;;3.90;;
20776;SDS011;10548;47.504;8.248;2023-07-08T12:02:12;8.73;;;4.07;;
20776;SDS011;10548;47.504;8.248;2023-07-08T12:07:47;7.07;;;3.83;;
20776;SDS011;10548;47.504;8.248;2023-07-08T12:10:34;7.57;;;3.77;;
20776;SDS011;10548;47.504;8.248;2023-07-08T12:13:11;8.03;;;4.47;;
20776;SDS011;10548;47.504;8.248;2023-07-08T12:15:40;6.17;;;3.87;;
20776;SDS011;10548;47.504;8.248;2023-07-08T12:18:12;10.30;;;4.13;;
20776;SDS011;10548;47.504;8.248;2023-07-08T12:20:52;7.83;;;3.90;;
20776;SDS011;10548;47.504;8.248;2023-07-08T12:23:25;9.97;;;3.63;;
20776;SDS011;10548;47.504;8.248;2023-07-08T12:25:54;7.43;;;3.67;;
20776;SDS011;10548;47.504;8.248;2023-07-08T12:28:24;9.40;;;3.90;;
20776;SDS011;10548;47.504;8.248;2023-07-08T12:30:51;5.83;;;3.67;;
20776;SDS011;10548;47.504;8.248;2023-07-08T12:33:24;7.03;;;3.10;;
20776;SDS011;10548;47.504;8.248;2023-07-08T12:35:56;7.40;;;3.57;;
20776;SDS011;10548;47.504;8.248;2023-07-08T12:41:24;6.37;;;3.00;;
20776;SDS011;10548;47.504;8.248;2023-07-08T12:43:54;7.77;;;3.37;;
20776;SDS011;10548;47.504;8.248;2023-07-08T12:46:23;5.17;;;3.40;;
20776;SDS011;10548;47.504;8.248;2023-07-08T12:48:51;10.53;;;3.80;;
20776;SDS011;10548;47.504;8.248;2023-07-08T12:51:20;6.20;;;3.23;;
20776;SDS011;10548;47.504;8.248;2023-07-08T12:53:50;6.97;;;3.60;;
20776;SDS011;10548;47.504;8.248;2023-07-08T12:56:19;7.00;;;3.77;;
20776;SDS011;10548;47.504;8.248;2023-07-08T12:58:56;6.87;;;3.80;;
20776;SDS011;10548;47.504;8.248;2023-07-08T13:01:25;4.67;;;3.03;;
20776;SDS011;10548;47.504;8.248;2023-07-08T13:03:58;8.67;;;3.53;;
20776;SDS011;10548;47.504;8.248;2023-07-08T13:06:29;6.10;;;3.23;;
20776;SDS011;10548;47.504;8.248;2023-07-08T13:09:00;4.37;;;3.13;;
20776;SDS011;10548;47.504;8.248;2023-07-08T13:11:33;5.83;;;3.00;;
20776;SDS011;10548;47.504;8.248;2023-07-08T13:14:01;7.87;;;3.57;;
20776;SDS011;10548;47.504;8.248;2023-07-08T13:16:33;6.83;;;2.90;;
20776;SDS011;10548;47.504;8.248;2023-07-08T13:19:02;4.30;;;3.00;;
20776;SDS011;10548;47.504;8.248;2023-07-08T13:21:30;6.00;;;3.40;;
20776;SDS011;10548;47.504;8.248;2023-07-08T13:23:59;8.90;;;3.73;;
20776;SDS011;10548;47.504;8.248;2023-07-08T13:26:29;12.40;;;3.17;;
20776;SDS011;10548;47.504;8.248;2023-07-08T13:29:00;6.57;;;2.60;;
20776;SDS011;10548;47.504;8.248;2023-07-08T13:31:34;6.20;;;2.83;;
20776;SDS011;10548;47.504;8.248;2023-07-08T13:34:09;5.80;;;3.40;;
20776;SDS011;10548;47.504;8.248;2023-07-08T13:36:43;5.10;;;3.10;;
20776;SDS011;10548;47.504;8.248;2023-07-08T13:39:15;4.80;;;3.27;;
20776;SDS011;10548;47.504;8.248;2023-07-08T13:41:49;8.00;;;2.80;;
20776;SDS011;10548;47.504;8.248;2023-07-08T13:44:16;6.70;;;3.03;;
20776;SDS011;10548;47.504;8.248;2023-07-08T13:46:45;5.33;;;2.70;;
20776;SDS011;10548;47.504;8.248;2023-07-08T13:49:32;10.37;;;2.80;;
20776;SDS011;10548;47.504;8.248;2023-07-08T13:54:49;8.43;;;3.70;;
20776;SDS011;10548;47.504;8.248;2023-07-08T13:57:23;7.23;;;3.43;;
20776;SDS011;10548;47.504;8.248;2023-07-08T14:00:03;7.70;;;3.80;;
20776;SDS011;10548;47.504;8.248;2023-07-08T14:02:43;7.97;;;3.67;;
20776;SDS011;10548;47.504;8.248;2023-07-08T14:05:12;10.63;;;3.60;;
20776;SDS011;10548;47.504;8.248;2023-07-08T14:07:40;6.57;;;3.20;;
20776;SDS011;10548;47.504;8.248;2023-07-08T14:10:11;6.17;;;3.50;;
20776;SDS011;10548;47.504;8.248;2023-07-08T14:12:39;7.40;;;3.30;;
20776;SDS011;10548;47.504;8.248;2023-07-08T14:15:07;7.83;;;3.50;;
20776;SDS011;10548;47.504;8.248;2023-07-08T14:17:35;6.77;;;3.13;;
20776;SDS011;10548;47.504;8.248;2023-07-08T14:20:09;10.13;;;3.33;;
20776;SDS011;10548;47.504;8.248;2023-07-08T14:22:39;5.57;;;3.67;;
20776;SDS011;10548;47.504;8.248;2023-07-08T14:25:07;7.13;;;3.70;;
20776;SDS011;10548;47.504;8.248;2023-07-08T14:27:36;7.97;;;3.90;;
20776;SDS011;10548;47.504;8.248;2023-07-08T14:30:04;7.27;;;4.10;;
20776;SDS011;10548;47.504;8.248;2023-07-08T14:32:32;12.80;;;3.40;;
20776;SDS011;10548;47.504;8.248;2023-07-08T14:35:01;4.97;;;3.30;;
20776;SDS011;10548;47.504;8.248;2023-07-08T14:37:42;5.30;;;3.37;;
20776;SDS011;10548;47.504;8.248;2023-07-08T14:40:27;8.40;;;3.80;;
20776;SDS011;10548;47.504;8.248;2023-07-08T14:43:00;7.17;;;3.30;;
20776;SDS011;10548;47.504;8.248;2023-07-08T14:45:31;5.93;;;3.40;;
20776;SDS011;10548;47.504;8.248;2023-07-08T14:48:09;10.43;;;4.20;;
20776;SDS011;10548;47.504;8.248;2023-07-08T14:50:37;5.00;;;3.57;;
20776;SDS011;10548;47.504;8.248;2023-07-08T14:53:04;9.60;;;3.57;;
20776;SDS011;10548;47.504;8.248;2023-07-08T14:55:32;6.00;;;3.47;;
20776;SDS011;10548;47.504;8.248;2023-07-08T14:57:59;5.63;;;3.37;;
20776;SDS011;10548;47.504;8.248;2023-07-08T15:00:27;7.67;;;3.37;;
20776;SDS011;10548;47.504;8.248;2023-07-08T15:02:55;5.30;;;3.10;;
20776;SDS011;10548;47.504;8.248;2023-07-08T15:05:23;6.00;;;3.30;;
20776;SDS011;10548;47.504;8.248;2023-07-08T15:07:53;6.27;;;3.60;;
20776;SDS011;10548;47.504;8.248;2023-07-08T15:10:27;5.60;;;3.30;;
20776;SDS011;10548;47.504;8.248;2023-07-08T15:12:56;6.47;;;3.47;;
20776;SDS011;10548;47.504;8.248;2023-07-08T15:15:34;5.97;;;3.63;;
20776;SDS011;10548;47.504;8.248;2023-07-08T15:18:05;8.48;;;3.80;;
20776;SDS011;10548;47.504;8.248;2023-07-08T15:20:38;6.73;;;3.20;;
20776;SDS011;10548;47.504;8.248;2023-07-08T15:23:05;4.97;;;2.90;;
20776;SDS011;10548;47.504;8.248;2023-07-08T15:25:32;4.07;;;2.80;;
20776;SDS011;10548;47.504;8.248;2023-07-08T15:28:01;10.67;;;2.97;;
20776;SDS011;10548;47.504;8.248;2023-07-08T15:30:30;9.27;;;3.20;;
20776;SDS011;10548;47.504;8.248;2023-07-08T15:32:57;7.07;;;3.20;;
20776;SDS011;10548;47.504;8.248;2023-07-08T15:35:26;6.70;;;3.70;;
20776;SDS011;10548;47.504;8.248;2023-07-08T15:37:59;6.37;;;3.13;;
20776;SDS011;10548;47.504;8.248;2023-07-08T15:40:31;5.97;;;3.43;;
20776;SDS011;10548;47.504;8.248;2023-07-08T15:43:00;5.43;;;2.75;;
20776;SDS011;10548;47.504;8.248;2023-07-08T15:45:30;6.45;;;3.58;;
20776;SDS011;10548;47.504;8.248;2023-07-08T15:48:01;6.60;;;3.45;;